Time;durP1;ratioP1;P1;durP2;ratioP2;P2;SDS_P1;SDS_P2;PMS_P1;PMS_P2;Temp;Humidity;BMP_temperature;BMP_pressure;BME280_temperature;BME280_humidity;BME280_pressure;Samples;Min_cycle;Max_cycle;Signal;HPM_P1;HPM_P2
2021/04/27 00:00:47;;;;;;;;;;;18.30;38.70;;;;;;5078676;28;20003;-70
2021/04/27 00:03:13;;;;;;;;;;;18.30;38.80;;;;;;5079932;28;20215;-70
2021/04/27 00:05:40;;;;;;;;;;;18.30;39.50;;;;;;5069908;28;20310;-70
2021/04/27 00:08:06;;;;;;;;;;;18.30;38.00;;;;;;5075992;28;19916;-71
2021/04/27 00:10:32;;;;;;;;;;;18.40;38.30;;;;;;5076629;28;19995;-71
2021/04/27 00:13:01;;;;;;;;;;;18.30;38.50;;;;;;5074678;28;19913;-71
2021/04/27 00:15:27;;;;;;;;;;;18.30;38.40;;;;;;5075629;28;20250;-70
2021/04/27 00:17:53;;;;;;;;;;;18.30;37.00;;;;;;5075309;28;20011;-70
2021/04/27 00:20:21;;;;;;;;;;;18.20;38.20;;;;;;5074286;28;20336;-70
2021/04/27 00:22:47;;;;;;;;;;;18.20;38.70;;;;;;5073775;28;19909;-70
2021/04/27 00:25:13;;;;;;;;;;;18.10;38.40;;;;;;5075961;28;19924;-70
2021/04/27 00:27:40;;;;;;;;;;;18.00;39.50;;;;;;5085680;28;19913;-70
2021/04/27 00:30:07;;;;;;;;;;;17.90;39.70;;;;;;5075060;28;20388;-70
2021/04/27 00:32:34;;;;;;;;;;;17.80;39.90;;;;;;5069719;28;19913;-69
2021/04/27 00:35:00;;;;;;;;;;;17.80;38.30;;;;;;5068296;28;20358;-69
2021/04/27 00:37:26;;;;;;;;;;;17.90;39.00;;;;;;5073206;28;19916;-70
2021/04/27 00:39:52;;;;;;;;;;;17.70;40.40;;;;;;5077115;28;19923;-70
2021/04/27 00:42:26;;;;;;;;;;;17.70;40.40;;;;;;5073663;28;19920;-70
2021/04/27 00:44:52;;;;;;;;;;;17.70;40.80;;;;;;5056931;28;19913;-70
2021/04/27 00:47:18;;;;;;;;;;;17.70;40.90;;;;;;5073097;28;19916;-70
2021/04/27 00:49:44;;;;;;;;;;;17.60;40.30;;;;;;5069790;28;19919;-70
2021/04/27 00:52:10;;;;;;;;;;;17.60;40.40;;;;;;5075772;28;20223;-69
2021/04/27 00:54:36;;;;;;;;;;;17.80;40.00;;;;;;5076716;28;19919;-69
2021/04/27 00:57:02;;;;;;;;;;;17.70;40.50;;;;;;5066193;28;19962;-69
2021/04/27 00:59:28;;;;;;;;;;;17.40;41.40;;;;;;5081705;28;19913;-70
2021/04/27 01:01:54;;;;;;;;;;;17.50;41.40;;;;;;5072798;28;19920;-70
2021/04/27 01:04:20;;;;;;;;;;;17.40;41.70;;;;;;5075642;28;20250;-70
2021/04/27 01:06:49;;;;;;;;;;;17.20;42.60;;;;;;5075246;28;19928;-69
2021/04/27 01:09:19;;;;;;;;;;;17.30;42.40;;;;;;5076135;28;19921;-70
2021/04/27 01:11:48;;;;;;;;;;;17.20;42.80;;;;;;5073715;28;20219;-70
2021/04/27 01:14:35;;;;;;;;;;;17.30;43.10;;;;;;5065168;28;19912;-70
2021/04/27 01:17:03;;;;;;;;;;;17.30;43.30;;;;;;5068326;28;20308;-70
2021/04/27 01:19:39;;;;;;;;;;;17.40;42.50;;;;;;5077799;28;20388;-70
2021/04/27 01:22:09;;;;;;;;;;;17.30;43.00;;;;;;5067813;28;19913;-70
2021/04/27 01:24:42;;;;;;;;;;;17.30;42.70;;;;;;5065006;28;19995;-70
2021/04/27 01:27:08;;;;;;;;;;;17.10;42.90;;;;;;5071706;28;19931;-70
2021/04/27 01:29:35;;;;;;;;;;;16.90;43.40;;;;;;5077954;28;19972;-70
2021/04/27 01:32:02;;;;;;;;;;;17.00;43.30;;;;;;5073198;28;20323;-70
2021/04/27 01:34:48;;;;;;;;;;;16.80;44.00;;;;;;5068929;28;19966;-70
2021/04/27 01:37:14;;;;;;;;;;;16.80;44.40;;;;;;5074049;28;20326;-70
2021/04/27 01:39:41;;;;;;;;;;;16.80;44.20;;;;;;5075599;28;19924;-70
2021/04/27 01:42:08;;;;;;;;;;;16.80;44.50;;;;;;5075780;28;19949;-70
2021/04/27 01:44:39;;;;;;;;;;;16.90;43.90;;;;;;5075958;28;20238;-70
2021/04/27 01:47:06;;;;;;;;;;;16.60;44.90;;;;;;5074875;28;20429;-70
2021/04/27 01:49:32;;;;;;;;;;;16.70;44.90;;;;;;5076387;28;19966;-70
2021/04/27 01:51:59;;;;;;;;;;;16.70;44.80;;;;;;5077318;28;19916;-70
2021/04/27 01:54:26;;;;;;;;;;;16.60;45.00;;;;;;5079330;28;20011;-70
2021/04/27 01:56:53;;;;;;;;;;;16.50;45.00;;;;;;5068518;28;22433;-70
2021/04/27 01:59:19;;;;;;;;;;;16.30;45.10;;;;;;5071955;28;19920;-70
2021/04/27 02:01:46;;;;;;;;;;;16.10;45.30;;;;;;5068327;28;19916;-70
2021/04/27 02:04:12;;;;;;;;;;;16.10;45.60;;;;;;5074910;28;20330;-70
2021/04/27 02:06:38;;;;;;;;;;;16.00;45.60;;;;;;5071322;28;19939;-70
2021/04/27 02:09:06;;;;;;;;;;;16.20;45.40;;;;;;5071136;28;19913;-72
2021/04/27 02:11:37;;;;;;;;;;;16.10;46.00;;;;;;5071932;28;20289;-70
2021/04/27 02:14:04;;;;;;;;;;;15.80;46.20;;;;;;5069225;28;19951;-70
2021/04/27 02:16:36;;;;;;;;;;;15.80;47.10;;;;;;5071442;28;19973;-70
2021/04/27 02:19:03;;;;;;;;;;;15.70;47.10;;;;;;5069046;28;19999;-70
2021/04/27 02:21:32;;;;;;;;;;;15.40;47.40;;;;;;5072663;28;19921;-70
2021/04/27 02:23:58;;;;;;;;;;;15.20;47.20;;;;;;5072561;28;20320;-70
2021/04/27 02:26:24;;;;;;;;;;;15.40;47.70;;;;;;5070703;28;19924;-70
2021/04/27 02:28:51;;;;;;;;;;;15.20;48.00;;;;;;5104167;28;19925;-70
2021/04/27 02:31:18;;;;;;;;;;;15.30;47.80;;;;;;5070107;28;19963;-70
2021/04/27 02:33:44;;;;;;;;;;;15.20;48.00;;;;;;5070650;28;20322;-71
2021/04/27 02:36:11;;;;;;;;;;;15.20;48.20;;;;;;5072760;28;19917;-71
2021/04/27 02:38:37;;;;;;;;;;;15.20;48.50;;;;;;5073864;28;19919;-71
2021/04/27 02:41:05;;;;;;;;;;;15.10;49.30;;;;;;5073278;28;19917;-71
2021/04/27 02:43:31;;;;;;;;;;;15.10;49.00;;;;;;5073220;28;19916;-71
2021/04/27 02:45:57;;;;;;;;;;;15.00;49.00;;;;;;5073794;28;20346;-71
2021/04/27 02:48:27;;;;;;;;;;;15.00;50.00;;;;;;5072593;28;19951;-72
2021/04/27 02:50:55;;;;;;;;;;;14.90;49.60;;;;;;5069382;28;19920;-74
2021/04/27 02:53:21;;;;;;;;;;;14.70;49.90;;;;;;5074010;28;19920;-71
2021/04/27 02:55:48;;;;;;;;;;;14.80;51.00;;;;;;5074063;28;19924;-73
2021/04/27 02:58:15;;;;;;;;;;;14.60;51.10;;;;;;5073353;28;20265;-70
2021/04/27 03:00:41;;;;;;;;;;;14.60;50.50;;;;;;5073325;28;19939;-70
2021/04/27 03:03:07;;;;;;;;;;;14.30;51.30;;;;;;5074575;28;19912;-70
2021/04/27 03:05:34;;;;;;;;;;;14.40;51.00;;;;;;5068571;28;19925;-70
2021/04/27 03:08:00;;;;;;;;;;;14.40;51.00;;;;;;5072379;28;19966;-69
2021/04/27 03:10:26;;;;;;;;;;;14.40;50.50;;;;;;5073224;28;19912;-70
2021/04/27 03:12:52;;;;;;;;;;;14.20;51.10;;;;;;5073553;28;19923;-70
2021/04/27 03:15:19;;;;;;;;;;;14.30;52.10;;;;;;5067771;28;19913;-70
2021/04/27 03:17:45;;;;;;;;;;;14.30;51.50;;;;;;5073403;28;19912;-70
2021/04/27 03:20:12;;;;;;;;;;;14.30;51.30;;;;;;5073943;28;19916;-70
2021/04/27 03:22:39;;;;;;;;;;;14.10;51.90;;;;;;5073725;28;19913;-70
2021/04/27 03:25:06;;;;;;;;;;;14.20;51.50;;;;;;5071677;28;20342;-70
2021/04/27 03:27:32;;;;;;;;;;;14.10;51.80;;;;;;5074268;28;19926;-69
2021/04/27 03:29:59;;;;;;;;;;;14.40;53.20;;;;;;5074062;28;19916;-69
2021/04/27 03:32:25;;;;;;;;;;;14.10;52.60;;;;;;5069273;28;20003;-70
2021/04/27 03:34:51;;;;;;;;;;;14.10;52.50;;;;;;5095192;28;19919;-69
2021/04/27 03:37:17;;;;;;;;;;;14.20;52.90;;;;;;5093273;28;19916;-69
2021/04/27 03:39:43;;;;;;;;;;;14.10;53.40;;;;;;5078444;28;19908;-69
2021/04/27 03:42:10;;;;;;;;;;;14.10;52.30;;;;;;5077904;28;19917;-71
2021/04/27 03:44:36;;;;;;;;;;;14.00;52.40;;;;;;5077220;28;19977;-71
2021/04/27 03:47:11;;;;;;;;;;;14.00;52.50;;;;;;5078853;28;19912;-70
2021/04/27 03:49:37;;;;;;;;;;;14.00;52.10;;;;;;5076506;28;19919;-70
2021/04/27 03:52:04;;;;;;;;;;;14.10;53.30;;;;;;5080742;28;20262;-71
2021/04/27 03:54:32;;;;;;;;;;;14.10;52.50;;;;;;5080139;28;20437;-70
2021/04/27 03:56:58;;;;;;;;;;;14.10;52.60;;;;;;5076684;28;19924;-70
2021/04/27 03:59:27;;;;;;;;;;;14.00;53.10;;;;;;5076192;28;19973;-70
2021/04/27 04:01:53;;;;;;;;;;;13.80;52.40;;;;;;5069352;28;19923;-70
2021/04/27 04:04:19;;;;;;;;;;;13.90;52.80;;;;;;5076881;28;19912;-70
2021/04/27 04:06:45;;;;;;;;;;;14.00;53.60;;;;;;5077910;28;19935;-69
2021/04/27 04:09:11;;;;;;;;;;;14.00;53.10;;;;;;5076464;28;19991;-69
2021/04/27 04:11:37;;;;;;;;;;;14.00;53.50;;;;;;5075984;28;19917;-70
2021/04/27 04:14:04;;;;;;;;;;;13.90;53.50;;;;;;5101471;28;20011;-70
2021/04/27 04:16:30;;;;;;;;;;;13.90;53.20;;;;;;5077087;28;19939;-70
2021/04/27 04:18:56;;;;;;;;;;;13.80;54.20;;;;;;5077114;28;20364;-70
2021/04/27 04:21:23;;;;;;;;;;;13.70;54.00;;;;;;5076530;28;19964;-70
2021/04/27 04:23:49;;;;;;;;;;;13.70;54.30;;;;;;5076180;28;19913;-70
2021/04/27 04:26:15;;;;;;;;;;;13.80;55.30;;;;;;5077045;28;19923;-70
2021/04/27 04:28:41;;;;;;;;;;;13.70;53.90;;;;;;5076670;28;19913;-69
2021/04/27 04:31:08;;;;;;;;;;;13.60;53.90;;;;;;5076709;28;19908;-71
2021/04/27 04:33:35;;;;;;;;;;;13.70;55.60;;;;;;5106731;28;19927;-70
2021/04/27 04:36:01;;;;;;;;;;;13.90;54.90;;;;;;5076197;28;19916;-69
2021/04/27 04:38:27;;;;;;;;;;;13.80;54.20;;;;;;5076137;28;19923;-70
2021/04/27 04:40:53;;;;;;;;;;;13.60;55.10;;;;;;5074748;28;19927;-70
2021/04/27 04:43:20;;;;;;;;;;;13.60;55.20;;;;;;5075097;28;19927;-70
2021/04/27 04:45:46;;;;;;;;;;;13.70;55.10;;;;;;5075772;28;19924;-70
2021/04/27 04:48:12;;;;;;;;;;;13.50;56.50;;;;;;5074749;28;19913;-70
2021/04/27 04:50:39;;;;;;;;;;;13.50;55.30;;;;;;5059761;28;19913;-70
2021/04/27 04:53:06;;;;;;;;;;;13.60;55.20;;;;;;5077029;28;19923;-70
2021/04/27 04:55:33;;;;;;;;;;;13.70;54.70;;;;;;5073375;28;19916;-70
2021/04/27 04:57:59;;;;;;;;;;;13.60;55.00;;;;;;5075378;28;20330;-70
2021/04/27 05:00:25;;;;;;;;;;;13.50;55.90;;;;;;5074562;28;20384;-70
2021/04/27 05:02:51;;;;;;;;;;;13.60;55.50;;;;;;5069722;28;19922;-70
2021/04/27 05:05:17;;;;;;;;;;;13.40;56.70;;;;;;5076043;28;20023;-70
2021/04/27 05:07:48;;;;;;;;;;;13.40;55.40;;;;;;5074638;28;19947;-70
2021/04/27 05:10:15;;;;;;;;;;;13.60;56.30;;;;;;5075575;28;19912;-70
2021/04/27 05:12:42;;;;;;;;;;;13.40;57.30;;;;;;5076733;28;20337;-70
2021/04/27 05:15:09;;;;;;;;;;;13.50;55.50;;;;;;5071755;28;19924;-70
2021/04/27 05:17:36;;;;;;;;;;;13.50;55.80;;;;;;5075381;28;19917;-70
2021/04/27 05:20:02;;;;;;;;;;;13.50;56.00;;;;;;5083642;28;19916;-70
2021/04/27 05:22:29;;;;;;;;;;;13.30;56.00;;;;;;5084963;28;19916;-70
2021/04/27 05:24:55;;;;;;;;;;;13.40;55.70;;;;;;5068152;28;19913;-70
2021/04/27 05:27:21;;;;;;;;;;;13.40;55.30;;;;;;5069666;28;19920;-70
2021/04/27 05:29:48;;;;;;;;;;;13.40;56.60;;;;;;5095922;28;19942;-70
2021/04/27 05:32:14;;;;;;;;;;;13.40;57.20;;;;;;5064336;28;19920;-70
2021/04/27 05:34:40;;;;;;;;;;;13.40;56.90;;;;;;5075900;28;20317;-70
2021/04/27 05:37:06;;;;;;;;;;;13.40;56.40;;;;;;5075358;28;20239;-70
2021/04/27 05:39:32;;;;;;;;;;;13.40;55.80;;;;;;5074878;28;19917;-70
2021/04/27 05:41:58;;;;;;;;;;;13.40;56.40;;;;;;5076715;28;19920;-69
2021/04/27 05:44:24;;;;;;;;;;;13.40;56.00;;;;;;5075743;28;19979;-71
2021/04/27 05:46:51;;;;;;;;;;;13.40;56.80;;;;;;5077194;28;19916;-70
2021/04/27 05:49:17;;;;;;;;;;;13.40;57.20;;;;;;5079464;28;20011;-69
2021/04/27 05:51:43;;;;;;;;;;;13.30;57.50;;;;;;5078213;28;20004;-70
2021/04/27 05:54:09;;;;;;;;;;;13.30;56.60;;;;;;5075851;28;19908;-70
2021/04/27 05:56:35;;;;;;;;;;;13.30;56.50;;;;;;5075459;28;21587;-69
2021/04/27 05:59:02;;;;;;;;;;;13.40;58.00;;;;;;5069160;28;20009;-69
2021/04/27 06:01:28;;;;;;;;;;;13.50;56.70;;;;;;5075001;28;19920;-70
2021/04/27 06:03:54;;;;;;;;;;;13.40;56.60;;;;;;5074309;28;20246;-72
2021/04/27 06:06:20;;;;;;;;;;;13.40;56.80;;;;;;5074493;28;20531;-70
2021/04/27 06:08:46;;;;;;;;;;;13.40;57.40;;;;;;5074504;28;19913;-70
2021/04/27 06:11:13;;;;;;;;;;;13.20;56.80;;;;;;5074715;28;20342;-70
2021/04/27 06:13:39;;;;;;;;;;;13.30;57.50;;;;;;5074373;28;19918;-70
2021/04/27 06:16:05;;;;;;;;;;;13.20;57.00;;;;;;5074857;28;20427;-70
2021/04/27 06:18:31;;;;;;;;;;;13.40;57.40;;;;;;5074325;28;20180;-70
2021/04/27 06:20:58;;;;;;;;;;;13.20;58.30;;;;;;5074744;28;20042;-70
2021/04/27 06:23:24;;;;;;;;;;;13.30;58.20;;;;;;5074964;28;20369;-70
2021/04/27 06:25:50;;;;;;;;;;;13.20;57.00;;;;;;5072206;28;20313;-70
2021/04/27 06:28:16;;;;;;;;;;;13.20;57.50;;;;;;5073267;28;19935;-70
2021/04/27 06:30:43;;;;;;;;;;;13.10;57.60;;;;;;5073626;28;19916;-69
2021/04/27 06:33:09;;;;;;;;;;;13.00;57.00;;;;;;5071613;28;20317;-69
2021/04/27 06:35:36;;;;;;;;;;;12.90;56.80;;;;;;5069627;28;19948;-69
2021/04/27 06:38:02;;;;;;;;;;;12.90;56.90;;;;;;5074590;28;19916;-70
2021/04/27 06:40:29;;;;;;;;;;;12.90;57.10;;;;;;5074379;28;20273;-70
2021/04/27 06:42:55;;;;;;;;;;;12.90;57.00;;;;;;5074691;28;19916;-70
2021/04/27 06:45:21;;;;;;;;;;;12.80;57.20;;;;;;5074728;28;19912;-70
2021/04/27 06:47:48;;;;;;;;;;;12.80;57.10;;;;;;5075034;28;19909;-70
2021/04/27 06:50:15;;;;;;;;;;;12.70;56.80;;;;;;5074723;28;19913;-70
2021/04/27 06:52:41;;;;;;;;;;;12.60;56.80;;;;;;5074676;28;20066;-70
2021/04/27 06:55:08;;;;;;;;;;;12.60;57.10;;;;;;5074211;28;20357;-70
2021/04/27 06:57:34;;;;;;;;;;;12.60;56.80;;;;;;5074575;28;19917;-70
2021/04/27 07:00:00;;;;;;;;;;;12.60;56.90;;;;;;5073421;28;20303;-69
2021/04/27 07:02:26;;;;;;;;;;;12.50;56.70;;;;;;5073806;28;20361;-70
2021/04/27 07:04:52;;;;;;;;;;;12.50;56.90;;;;;;5074144;28;19996;-70
2021/04/27 07:07:18;;;;;;;;;;;12.50;57.00;;;;;;5064493;28;19916;-70
2021/04/27 07:09:44;;;;;;;;;;;12.40;56.70;;;;;;5073324;28;19919;-70
2021/04/27 07:12:10;;;;;;;;;;;12.40;56.70;;;;;;5073249;28;19916;-70
2021/04/27 07:14:37;;;;;;;;;;;12.30;57.30;;;;;;5073200;28;20227;-70
2021/04/27 07:17:03;;;;;;;;;;;12.30;57.00;;;;;;5073510;28;20381;-70
2021/04/27 07:19:29;;;;;;;;;;;12.20;57.00;;;;;;5073637;28;19913;-70
2021/04/27 07:21:55;;;;;;;;;;;12.20;57.70;;;;;;5071790;28;19916;-70
2021/04/27 07:24:21;;;;;;;;;;;12.30;57.60;;;;;;5072837;28;20309;-70
2021/04/27 07:26:47;;;;;;;;;;;12.30;57.40;;;;;;5072979;28;19912;-70
2021/04/27 07:29:14;;;;;;;;;;;12.40;57.70;;;;;;5073751;28;19930;-70
2021/04/27 07:31:40;;;;;;;;;;;12.40;57.80;;;;;;5073729;28;20310;-70
2021/04/27 07:34:06;;;;;;;;;;;12.40;57.90;;;;;;5074229;28;19912;-70
2021/04/27 07:36:32;;;;;;;;;;;12.30;59.20;;;;;;5071412;28;19913;-70
2021/04/27 07:38:59;;;;;;;;;;;12.30;58.60;;;;;;5071114;28;20117;-70
2021/04/27 07:41:25;;;;;;;;;;;12.40;58.20;;;;;;5073974;28;19935;-70
2021/04/27 07:43:51;;;;;;;;;;;12.50;58.70;;;;;;5073985;28;19913;-70
2021/04/27 07:46:17;;;;;;;;;;;12.30;59.10;;;;;;5074586;28;19919;-70
2021/04/27 07:48:43;;;;;;;;;;;12.30;59.40;;;;;;5073477;28;19932;-70
2021/04/27 07:51:09;;;;;;;;;;;12.20;59.60;;;;;;5077175;28;19924;-70
2021/04/27 07:53:35;;;;;;;;;;;12.30;58.60;;;;;;5072726;28;19955;-70
2021/04/27 07:56:01;;;;;;;;;;;12.30;58.90;;;;;;5073024;28;19912;-70
2021/04/27 07:58:27;;;;;;;;;;;12.20;60.30;;;;;;5073333;28;19920;-70
2021/04/27 08:00:53;;;;;;;;;;;12.30;58.90;;;;;;5067797;28;19924;-70
2021/04/27 08:03:19;;;;;;;;;;;12.20;59.40;;;;;;5072104;28;19913;-69
2021/04/27 08:05:47;;;;;;;;;;;12.20;59.20;;;;;;5072848;28;19912;-70
2021/04/27 08:08:13;;;;;;;;;;;12.20;59.10;;;;;;5073353;28;19958;-70
2021/04/27 08:10:39;;;;;;;;;;;12.10;59.10;;;;;;5071791;28;19951;-69
2021/04/27 08:13:05;;;;;;;;;;;12.10;58.70;;;;;;5072538;28;19912;-70
2021/04/27 08:15:32;;;;;;;;;;;12.20;59.10;;;;;;5073227;28;19913;-70
2021/04/27 08:18:00;;;;;;;;;;;12.10;60.30;;;;;;5066754;28;19977;-69
2021/04/27 08:20:27;;;;;;;;;;;12.10;59.70;;;;;;5068377;28;20011;-69
2021/04/27 08:22:53;;;;;;;;;;;12.00;61.30;;;;;;5073753;28;19916;-70
2021/04/27 08:25:19;;;;;;;;;;;12.10;60.70;;;;;;5075420;28;19912;-70
2021/04/27 08:27:45;;;;;;;;;;;12.10;59.90;;;;;;5075374;28;19913;-70
2021/04/27 08:30:12;;;;;;;;;;;12.00;59.80;;;;;;5077318;28;20335;-70
2021/04/27 08:32:38;;;;;;;;;;;12.10;60.00;;;;;;5076591;28;19916;-70
2021/04/27 08:35:04;;;;;;;;;;;12.20;59.90;;;;;;5076434;28;20258;-70
2021/04/27 08:37:31;;;;;;;;;;;12.10;61.80;;;;;;5075780;28;19916;-69
2021/04/27 08:39:57;;;;;;;;;;;12.10;60.10;;;;;;5075816;28;20019;-70
2021/04/27 08:42:24;;;;;;;;;;;12.00;61.60;;;;;;5075608;28;19924;-69
2021/04/27 08:44:51;;;;;;;;;;;12.00;59.80;;;;;;5075348;28;20239;-70
2021/04/27 08:47:18;;;;;;;;;;;12.00;59.90;;;;;;5075850;28;19958;-70
2021/04/27 08:49:44;;;;;;;;;;;11.90;60.00;;;;;;5074226;28;20004;-69
2021/04/27 08:52:10;;;;;;;;;;;12.00;58.70;;;;;;5076172;28;20239;-69
2021/04/27 08:54:36;;;;;;;;;;;11.90;58.90;;;;;;5073682;28;19953;-69
2021/04/27 08:57:06;;;;;;;;;;;11.90;58.70;;;;;;5075667;28;19917;-70
2021/04/27 08:59:32;;;;;;;;;;;11.80;59.30;;;;;;5076183;28;19959;-70
2021/04/27 09:01:58;;;;;;;;;;;11.80;59.10;;;;;;5076426;28;20365;-69
2021/04/27 09:04:43;;;;;;;;;;;11.70;59.40;;;;;;5075088;28;19993;-70
2021/04/27 09:07:19;;;;;;;;;;;11.70;58.70;;;;;;5073620;28;19947;-70
2021/04/27 09:09:47;;;;;;;;;;;11.60;59.80;;;;;;5076248;28;19916;-69
2021/04/27 09:12:13;;;;;;;;;;;11.60;59.90;;;;;;5075140;28;19920;-69
2021/04/27 09:14:41;;;;;;;;;;;11.50;59.00;;;;;;5075582;28;20003;-70
2021/04/27 09:17:08;;;;;;;;;;;11.50;59.20;;;;;;5075532;28;19928;-69
2021/04/27 09:19:42;;;;;;;;;;;11.40;60.60;;;;;;5074793;28;19930;-69
2021/04/27 09:22:12;;;;;;;;;;;11.40;59.30;;;;;;5066838;28;20018;-69
2021/04/27 09:24:40;;;;;;;;;;;11.40;58.30;;;;;;5074119;28;19924;-70
2021/04/27 09:27:07;;;;;;;;;;;11.30;58.90;;;;;;5074629;28;19920;-69
2021/04/27 09:29:35;;;;;;;;;;;11.30;59.10;;;;;;5074638;28;19916;-69
2021/04/27 09:32:01;;;;;;;;;;;11.20;59.20;;;;;;5072052;28;19947;-69
2021/04/27 09:34:29;;;;;;;;;;;11.20;60.20;;;;;;5074988;28;19913;-70
2021/04/27 09:36:58;;;;;;;;;;;11.20;59.70;;;;;;5075640;28;20394;-70
2021/04/27 09:39:44;;;;;;;;;;;11.10;60.30;;;;;;5075093;28;20227;-69
2021/04/27 09:42:15;;;;;;;;;;;11.00;59.70;;;;;;5073470;28;19977;-70
2021/04/27 09:44:45;;;;;;;;;;;11.00;59.50;;;;;;5075067;28;19912;-69
2021/04/27 09:47:11;;;;;;;;;;;11.00;59.80;;;;;;5075205;28;19912;-70
2021/04/27 09:49:37;;;;;;;;;;;11.00;59.20;;;;;;5076341;28;19923;-70
2021/04/27 09:52:07;;;;;;;;;;;10.90;59.60;;;;;;5076004;28;19932;-70
2021/04/27 09:54:33;;;;;;;;;;;10.90;59.60;;;;;;5074933;28;19949;-70
2021/04/27 09:56:59;;;;;;;;;;;10.80;59.50;;;;;;5076198;28;19924;-69
2021/04/27 09:59:28;;;;;;;;;;;10.80;59.90;;;;;;5077251;28;19912;-71
2021/04/27 10:01:54;;;;;;;;;;;10.80;59.50;;;;;;5070734;28;20349;-70
2021/04/27 10:04:22;;;;;;;;;;;10.70;59.50;;;;;;5075279;28;19935;-69
2021/04/27 10:06:48;;;;;;;;;;;10.70;59.90;;;;;;5078482;28;19986;-70
2021/04/27 10:09:15;;;;;;;;;;;10.70;59.00;;;;;;5080199;28;19920;-70
2021/04/27 10:11:41;;;;;;;;;;;10.60;61.30;;;;;;5080227;28;19912;-70
2021/04/27 10:14:08;;;;;;;;;;;10.60;59.80;;;;;;5078425;28;19913;-70
2021/04/27 10:16:35;;;;;;;;;;;10.60;60.00;;;;;;5080088;28;19958;-69
2021/04/27 10:19:02;;;;;;;;;;;10.60;60.00;;;;;;5074780;28;19928;-70
2021/04/27 10:21:29;;;;;;;;;;;10.60;60.40;;;;;;5074317;28;19928;-69
2021/04/27 10:23:57;;;;;;;;;;;10.60;60.60;;;;;;5073875;28;19917;-70
2021/04/27 10:26:24;;;;;;;;;;;10.70;60.90;;;;;;5074441;28;19924;-70
2021/04/27 10:28:56;;;;;;;;;;;10.70;61.50;;;;;;5072321;28;19919;-69
2021/04/27 10:31:22;;;;;;;;;;;10.80;59.70;;;;;;5072607;28;19917;-69
2021/04/27 10:34:12;;;;;;;;;;;10.80;61.50;;;;;;5074053;28;19963;-70
2021/04/27 10:36:39;;;;;;;;;;;10.80;63.10;;;;;;5064411;28;19920;-69
2021/04/27 10:39:07;;;;;;;;;;;10.90;63.10;;;;;;5073882;28;19920;-70
2021/04/27 10:41:59;;;;;;;;;;;10.80;61.90;;;;;;5073568;28;19916;-69
2021/04/27 10:44:45;;;;;;;;;;;10.90;61.30;;;;;;5070705;28;19912;-70
2021/04/27 10:47:18;;;;;;;;;;;10.90;61.80;;;;;;5073397;28;19956;-69
2021/04/27 10:49:44;;;;;;;;;;;10.90;61.50;;;;;;5072574;28;19920;-69
2021/04/27 10:52:29;;;;;;;;;;;11.00;60.90;;;;;;5074312;28;19913;-70
2021/04/27 10:55:13;;;;;;;;;;;11.10;61.90;;;;;;5072329;28;19912;-69
2021/04/27 10:57:46;;;;;;;;;;;11.10;61.30;;;;;;5071856;28;19917;-70
2021/04/27 11:00:32;;;;;;;;;;;11.30;60.80;;;;;;5072699;28;19922;-70
2021/04/27 11:03:24;;;;;;;;;;;11.30;61.20;;;;;;5067843;28;19912;-70
2021/04/27 11:06:06;;;;;;;;;;;11.30;62.50;;;;;;5073174;28;19913;-69
2021/04/27 11:08:49;;;;;;;;;;;11.40;62.30;;;;;;5073250;28;19912;-69
2021/04/27 11:11:21;;;;;;;;;;;11.30;62.90;;;;;;5068748;28;20007;-69
2021/04/27 11:13:48;;;;;;;;;;;11.20;64.10;;;;;;5074611;28;19999;-70
2021/04/27 11:16:27;;;;;;;;;;;11.20;61.70;;;;;;5067228;28;19909;-69
2021/04/27 11:19:11;;;;;;;;;;;11.20;62.00;;;;;;5073549;28;19913;-70
2021/04/27 11:21:38;;;;;;;;;;;11.20;62.00;;;;;;5073473;28;19927;-70
2021/04/27 11:24:08;;;;;;;;;;;11.20;61.80;;;;;;5072953;28;19916;-70
2021/04/27 11:26:34;;;;;;;;;;;11.10;61.80;;;;;;5073628;28;19912;-69
2021/04/27 11:29:08;;;;;;;;;;;11.10;61.60;;;;;;5074110;28;19939;-69
2021/04/27 11:32:03;;;;;;;;;;;11.10;61.30;;;;;;5073382;28;19920;-70
2021/04/27 11:34:30;;;;;;;;;;;11.10;61.50;;;;;;5063119;28;19912;-70
2021/04/27 11:36:57;;;;;;;;;;;11.20;61.80;;;;;;5105426;28;19923;-70
2021/04/27 11:39:24;;;;;;;;;;;11.10;62.10;;;;;;5072814;28;19924;-69
2021/04/27 11:41:51;;;;;;;;;;;11.20;60.80;;;;;;5072087;28;19916;-70
2021/04/27 11:44:18;;;;;;;;;;;11.10;62.60;;;;;;5072731;28;19955;-70
2021/04/27 11:46:54;;;;;;;;;;;11.00;62.80;;;;;;5073605;28;19916;-70
2021/04/27 11:49:21;;;;;;;;;;;11.10;61.10;;;;;;5073712;28;19920;-70
2021/04/27 11:51:47;;;;;;;;;;;11.10;62.40;;;;;;5072215;28;19974;-69
2021/04/27 11:54:13;;;;;;;;;;;11.00;62.30;;;;;;5073365;28;20353;-69
2021/04/27 11:56:48;;;;;;;;;;;11.00;61.40;;;;;;5072331;28;19969;-70
2021/04/27 11:59:20;;;;;;;;;;;10.90;62.30;;;;;;5076772;28;19912;-69
2021/04/27 12:01:47;;;;;;;;;;;10.90;63.40;;;;;;5075024;28;20006;-70
2021/04/27 12:04:13;;;;;;;;;;;10.90;61.60;;;;;;5074943;28;19923;-70
2021/04/27 12:06:39;;;;;;;;;;;10.90;62.60;;;;;;5078173;28;19913;-70
2021/04/27 12:09:06;;;;;;;;;;;10.90;62.50;;;;;;5077050;28;19969;-70
2021/04/27 12:11:33;;;;;;;;;;;10.80;62.00;;;;;;5074872;28;19913;-70
2021/04/27 12:14:02;;;;;;;;;;;10.90;60.80;;;;;;5075992;28;19912;-70
2021/04/27 12:16:29;;;;;;;;;;;10.90;60.90;;;;;;5076858;28;19959;-70
2021/04/27 12:19:26;;;;;;;;;;;11.00;62.10;;;;;;5077611;28;19964;-69
2021/04/27 12:21:53;;;;;;;;;;;11.30;62.00;;;;;;5075239;28;20007;-69
2021/04/27 12:24:30;;;;;;;;;;;11.20;61.70;;;;;;5074789;28;19920;-69
2021/04/27 12:27:07;;;;;;;;;;;11.00;62.20;;;;;;5076201;28;19919;-69
2021/04/27 12:29:35;;;;;;;;;;;10.90;62.10;;;;;;5073523;28;19913;-69
2021/04/27 12:32:12;;;;;;;;;;;10.80;62.60;;;;;;5068390;28;20058;-69
2021/04/27 12:34:53;;;;;;;;;;;10.80;63.10;;;;;;5065642;28;19916;-70
2021/04/27 12:37:19;;;;;;;;;;;10.80;62.70;;;;;;5075920;28;19912;-70
2021/04/27 12:39:45;;;;;;;;;;;10.80;62.60;;;;;;5076403;28;19920;-69
2021/04/27 12:42:19;;;;;;;;;;;10.80;62.70;;;;;;5077171;28;20293;-70
2021/04/27 12:44:52;;;;;;;;;;;10.80;61.60;;;;;;5076483;28;19940;-69
2021/04/27 12:47:20;;;;;;;;;;;10.80;61.70;;;;;;5076162;28;19972;-70
2021/04/27 12:49:55;;;;;;;;;;;10.80;61.80;;;;;;5076351;28;19922;-70
2021/04/27 12:52:21;;;;;;;;;;;10.90;61.90;;;;;;5074933;28;20365;-69
2021/04/27 12:54:55;;;;;;;;;;;11.00;61.80;;;;;;5076199;28;20007;-69
2021/04/27 12:57:22;;;;;;;;;;;10.90;61.60;;;;;;5076582;28;20303;-69
2021/04/27 12:59:53;;;;;;;;;;;10.90;62.00;;;;;;5076528;28;20301;-70
2021/04/27 13:02:19;;;;;;;;;;;10.80;61.80;;;;;;5075785;28;19923;-69
2021/04/27 13:04:46;;;;;;;;;;;10.80;62.60;;;;;;5069699;28;19944;-69
2021/04/27 13:07:26;;;;;;;;;;;10.80;61.90;;;;;;5070283;28;19959;-69
2021/04/27 13:09:54;;;;;;;;;;;10.90;62.10;;;;;;5075104;28;20302;-69
2021/04/27 13:12:20;;;;;;;;;;;10.90;61.60;;;;;;5076322;28;19999;-69
2021/04/27 13:14:48;;;;;;;;;;;10.90;61.70;;;;;;5075726;28;19912;-69
2021/04/27 13:17:44;;;;;;;;;;;10.80;61.70;;;;;;5076349;28;19912;-70
2021/04/27 13:20:16;;;;;;;;;;;10.80;61.90;;;;;;5075916;28;19916;-69
2021/04/27 13:22:46;;;;;;;;;;;10.70;63.30;;;;;;5074012;28;19962;-69
2021/04/27 13:25:16;;;;;;;;;;;10.70;63.70;;;;;;5072658;28;19970;-69
2021/04/27 13:27:50;;;;;;;;;;;10.70;62.80;;;;;;5074790;28;19920;-69
2021/04/27 13:30:18;;;;;;;;;;;10.70;63.00;;;;;;5073398;28;19920;-70
2021/04/27 13:32:54;;;;;;;;;;;10.70;62.60;;;;;;5073188;28;19916;-70
2021/04/27 13:35:36;;;;;;;;;;;10.70;62.00;;;;;;5074105;28;19913;-69
2021/04/27 13:38:03;;;;;;;;;;;10.60;62.30;;;;;;5075507;28;20007;-70
2021/04/27 13:40:30;;;;;;;;;;;10.60;62.70;;;;;;5074884;28;19985;-69
2021/04/27 13:42:58;;;;;;;;;;;10.60;62.40;;;;;;5074608;28;19917;-70
2021/04/27 13:45:29;;;;;;;;;;;10.60;62.60;;;;;;5073393;28;19912;-70
2021/04/27 13:47:56;;;;;;;;;;;10.60;61.50;;;;;;5073688;28;19919;-70
2021/04/27 13:50:22;;;;;;;;;;;10.60;61.80;;;;;;5074299;28;19913;-70
2021/04/27 13:52:48;;;;;;;;;;;10.60;63.00;;;;;;5073866;28;19916;-70
2021/04/27 13:55:14;;;;;;;;;;;10.60;63.10;;;;;;5074883;28;20042;-69
2021/04/27 13:57:42;;;;;;;;;;;10.60;62.30;;;;;;5074282;28;19912;-70
2021/04/27 14:00:09;;;;;;;;;;;10.60;62.60;;;;;;5074395;28;19920;-70
2021/04/27 14:02:35;;;;;;;;;;;10.60;62.00;;;;;;5071928;28;19913;-70
2021/04/27 14:05:04;;;;;;;;;;;10.70;62.20;;;;;;5073351;28;19920;-70
2021/04/27 14:07:30;;;;;;;;;;;10.70;62.30;;;;;;5104384;28;20278;-70
2021/04/27 14:09:56;;;;;;;;;;;10.80;62.30;;;;;;5073041;28;20251;-69
2021/04/27 14:12:24;;;;;;;;;;;10.80;62.10;;;;;;5073200;28;19918;-70
2021/04/27 14:14:51;;;;;;;;;;;10.90;62.40;;;;;;5075660;28;20316;-69
2021/04/27 14:17:17;;;;;;;;;;;11.00;62.50;;;;;;5074057;28;19912;-70
2021/04/27 14:19:43;;;;;;;;;;;11.00;62.30;;;;;;5073355;28;19970;-70
2021/04/27 14:22:09;;;;;;;;;;;11.10;63.20;;;;;;5074091;28;19923;-70